logo tempoitalia

Diretta Meteo Albacete-Los Llanos, Spagnalunedì 31 agosto ore 07:00

Mappa
Sereno 18 °C Sereno 24 Ore: T.min 14 T.max 34
Ponente Ovest/Sud-Ovest Km/h 9.3 Punto di rugiada: 6 °C Umidità: 45% Visibilità: 10 Km
Il sole sorge alle: 07:35 Il sole tramonta alle: 20:40
31 Agosto 2026 07:00 tempo osservato: Sereno Sereno 18 45 1020 vento: Nord O/SO 9.3
31 Agosto 2026 06:30 tempo osservato: Sereno Sereno 18 45 1020 vento: Nord O/SO 9.3
31 Agosto 2026 06:00 tempo osservato: Sereno Sereno 18 45 1020 vento: Nord O/SO 7.4
31 Agosto 2026 05:30 tempo osservato: Sereno Sereno 16 55 1020 vento: Nord N 5.5
31 Agosto 2026 05:00 tempo osservato: Sereno Sereno 17 55 1020 vento: Nord S/SO 9.3
31 Agosto 2026 04:30 tempo osservato: Sereno Sereno 18 51 1020 vento: Nord S 9.3
31 Agosto 2026 04:00 tempo osservato: Sereno Sereno 18 55 1020 vento: Nord S 11.1
31 Agosto 2026 03:30 tempo osservato: Sereno Sereno 19 48 1020 vento: Nord S 9.3
31 Agosto 2026 03:00 tempo osservato: Sereno Sereno 20 45 1020 vento: Nord S/SE 9.3
31 Agosto 2026 02:30 tempo osservato: Sereno Sereno 20 49 1020 vento: Nord S/SE 11.1
31 Agosto 2026 02:00 tempo osservato: Sereno Sereno 21 46 1020 vento: Nord S/SE 11.1
31 Agosto 2026 01:30 tempo osservato: Sereno Sereno 21 46 1020 vento: Nord S 7.4
31 Agosto 2026 01:00 tempo osservato: Sereno Sereno 22 46 1020 vento: Nord S/SE 9.3
31 Agosto 2026 00:30 tempo osservato: Sereno Sereno 22 46 1020 vento: Nord S/SE 9.3
31 Agosto 2026 00:00 tempo osservato: Sereno Sereno 22 46 1020 vento: Nord S/SE 9.3
30 Agosto 2026 23:30 tempo osservato: Sereno Sereno 23 43 1020 vento: Nord S/SE 9.3
30 Agosto 2026 23:00 tempo osservato: Sereno Sereno 24 41 1020 vento: Nord S/SE 7.4
30 Agosto 2026 22:30 tempo osservato: Sereno Sereno 25 36 1020 vento: Nord S/SE 7.4
30 Agosto 2026 22:00 tempo osservato: Sereno Sereno 26 34 1019 vento: Nord S 9.3
30 Agosto 2026 21:30 tempo osservato: Sereno Sereno 27 30 1019 vento: Nord S 9.3
30 Agosto 2026 21:00 tempo osservato: Sereno Sereno 29 23 1018 vento: Nord S 7.4
30 Agosto 2026 20:30 tempo osservato: Sereno Sereno 30 23 1018 vento: Nord S 9.3
30 Agosto 2026 20:00 tempo osservato: Sereno Sereno 32 19 1018 vento: Nord S 9.3
30 Agosto 2026 19:30 tempo osservato: Sereno Sereno 34 16 1018 vento: Nord SO 7.4
30 Agosto 2026 19:00 tempo osservato: Sereno Sereno 34 16 1018 vento: Nord O/SO 11.1
30 Agosto 2026 18:30 tempo osservato: Sereno Sereno 34 15 1018 vento: Nord N 9.3
30 Agosto 2026 18:00 tempo osservato: Sereno Sereno 34 16 1018 vento: Nord O 9.3
30 Agosto 2026 17:30 tempo osservato: Sereno Sereno 34 16 1018 vento: Nord N 9.3
30 Agosto 2026 17:00 tempo osservato: Sereno Sereno 33 17 1018 vento: Nord N 7.4
30 Agosto 2026 16:30 tempo osservato: Sereno Sereno 33 16 1018 vento: Nord O/NO 11.1
30 Agosto 2026 16:00 tempo osservato: Sereno Sereno 33 17 1019 vento: Nord O 11.1
30 Agosto 2026 15:30 tempo osservato: Sereno Sereno 32 18 1019 vento: Nord N 9.3
30 Agosto 2026 15:00 tempo osservato: Sereno Sereno 32 17 1019 vento: Nord O 11.1
30 Agosto 2026 14:30 tempo osservato: Sereno Sereno 32 15 1020 vento: Nord N 7.4
30 Agosto 2026 14:00 tempo osservato: Sereno Sereno 31 16 1020 vento: Nord N 9.3
30 Agosto 2026 13:30 tempo osservato: Sereno Sereno 31 16 1020 vento: Nord N/NE 9.3
30 Agosto 2026 13:00 tempo osservato: Sereno Sereno 30 16 1020 vento: Nord N 5.5
30 Agosto 2026 12:30 tempo osservato: Sereno Sereno 29 17 1021 vento: Nord N 5.5
30 Agosto 2026 12:00 tempo osservato: Sereno Sereno 28 21 1021 vento: Nord N 3.7
30 Agosto 2026 11:30 tempo osservato: Sereno Sereno 26 27 1021 vento: Nord N 3.7
30 Agosto 2026 11:00 tempo osservato: Sereno Sereno 24 33 1021 vento: Nord N 5.5
30 Agosto 2026 10:30 tempo osservato: Sereno Sereno 23 43 1021 vento: Nord N 5.5
30 Agosto 2026 10:00 tempo osservato: Sereno Sereno 20 52 1021 vento: Nord N 5.5
30 Agosto 2026 09:30 tempo osservato: Sereno Sereno 18 59 1021 vento: Nord N 5.5
30 Agosto 2026 09:00 tempo osservato: Sereno Sereno 17 67 1021 vento: Nord N 3.7
30 Agosto 2026 08:30 tempo osservato: Sereno Sereno 15 72 1021 vento: Nord N 3.7
30 Agosto 2026 08:00 tempo osservato: Sereno Sereno 14 76 1020 vento: Nord S 7.4